Map

Track Data

SID SEASON NUMBER BASIN SUBBASIN NAME ISO_TIME NATURE LAT LON WMO_WIND WMO_PRES WMO_AGENCY TRACK_TYPE DIST2LAND LANDFALL IFLAG USA_AGENCY USA_ATCF_ID USA_LAT USA_LON USA_RECORD USA_STATUS USA_WIND USA_PRES USA_SSHS USA_R34_NE USA_R34_SE USA_R34_SW USA_R34_NW USA_R50_NE USA_R50_SE USA_R50_SW USA_R50_NW USA_R64_NE USA_R64_SE USA_R64_SW USA_R64_NW USA_POCI USA_ROCI USA_RMW USA_EYE TOKYO_LAT TOKYO_LON TOKYO_GRADE TOKYO_WIND TOKYO_PRES TOKYO_R50_DIR TOKYO_R50_LONG TOKYO_R50_SHORT TOKYO_R30_DIR TOKYO_R30_LONG TOKYO_R30_SHORT TOKYO_LAND CMA_LAT CMA_LON CMA_CAT CMA_WIND CMA_PRES HKO_LAT HKO_LON HKO_CAT HKO_WIND HKO_PRES NEWDELHI_LAT NEWDELHI_LON NEWDELHI_GRADE NEWDELHI_WIND NEWDELHI_PRES NEWDELHI_CI NEWDELHI_DP NEWDELHI_POCI REUNION_LAT REUNION_LON REUNION_TYPE REUNION_WIND REUNION_PRES REUNION_TNUM REUNION_CI REUNION_RMW REUNION_R34_NE REUNION_R34_SE REUNION_R34_SW REUNION_R34_NW REUNION_R50_NE REUNION_R50_SE REUNION_R50_SW REUNION_R50_NW REUNION_R64_NE REUNION_R64_SE REUNION_R64_SW REUNION_R64_NW BOM_LAT BOM_LON BOM_TYPE BOM_WIND BOM_PRES BOM_TNUM BOM_CI BOM_RMW BOM_R34_NE BOM_R34_SE BOM_R34_SW BOM_R34_NW BOM_R50_NE BOM_R50_SE BOM_R50_SW BOM_R50_NW BOM_R64_NE BOM_R64_SE BOM_R64_SW BOM_R64_NW BOM_ROCI BOM_POCI BOM_EYE BOM_POS_METHOD BOM_PRES_METHOD NADI_LAT NADI_LON NADI_CAT NADI_WIND NADI_PRES WELLINGTON_LAT WELLINGTON_LON WELLINGTON_WIND WELLINGTON_PRES DS824_LAT DS824_LON DS824_STAGE DS824_WIND DS824_PRES TD9636_LAT TD9636_LON TD9636_STAGE TD9636_WIND TD9636_PRES TD9635_LAT TD9635_LON TD9635_WIND TD9635_PRES TD9635_ROCI NEUMANN_LAT NEUMANN_LON NEUMANN_CLASS NEUMANN_WIND NEUMANN_PRES MLC_LAT MLC_LON MLC_CLASS MLC_WIND MLC_PRES USA_GUST BOM_GUST BOM_GUST_PER REUNION_GUST REUNION_GUST_PER USA_SEAHGT USA_SEARAD_NE USA_SEARAD_SE USA_SEARAD_SW USA_SEARAD_NW STORM_SPEED STORM_DIR
1956361N10131 1956 121 WP MM NOT_NAMED 1956-12-26 06:00:00 TS 9.90000 130.600 main 487 477 __O___________ -1 9.90000 130.600 0 1005 3 305
1956361N10131 1956 121 WP MM NOT_NAMED 1956-12-26 09:00:00 TS 9.97502 130.493 main 480 469 __P___________ -1 9.97502 130.493 0 1005 3 315
1956361N10131 1956 121 WP MM NOT_NAMED 1956-12-26 12:00:00 TS 10.1000 130.400 main 471 463 __O___________ -1 10.1000 130.400 0 1005 4 333
1956361N10131 1956 121 WP MM NOT_NAMED 1956-12-26 15:00:00 TS 10.3000 130.322 main 466 462 __P___________ -1 10.3000 130.322 0 1005 4 334
1956361N10131 1956 121 WP MM NOT_NAMED 1956-12-26 18:00:00 TS 10.5000 130.200 main 462 445 __O___________ -1 10.5000 130.200 0 1005 5 311
1956361N10131 1956 121 WP MM NOT_NAMED 1956-12-26 21:00:00 TS 10.6000 129.972 main 445 418 __P___________ -1 10.6000 129.972 0 1005 5 292
1956361N10131 1956 121 WP MM NOT_NAMED 1956-12-27 00:00:00 TS 10.7000 129.700 main 418 403 __O___________ -1 10.7000 129.700 0 1005 6 300
1956361N10131 1956 121 WP MM NOT_NAMED 1956-12-27 03:00:00 TS 10.8849 129.472 main 404 371 __P___________ -1 10.8849 129.472 0 1005 6 309
1956361N10131 1956 121 WP MM NOT_NAMED 1956-12-27 06:00:00 TS 11.1000 129.200 main 371 329 __O___________ -1 11.1000 129.200 0 1005 8 304
1956361N10131 1956 121 WP MM NOT_NAMED 1956-12-27 09:00:00 TS 11.3075 128.823 main 329 289 __P___________ -1 11.3075 128.823 0 1005 9 297
1956361N10131 1956 121 WP MM NOT_NAMED 1956-12-27 12:00:00 TS 11.5000 128.400 main 289 249 __O___________ -1 11.5000 128.400 0 1005 9 293
1956361N10131 1956 121 WP MM NOT_NAMED 1956-12-27 15:00:00 TS 11.6650 127.977 main 252 215 __P___________ -1 11.6650 127.977 0 1005 8 291
1956361N10131 1956 121 WP MM NOT_NAMED 1956-12-27 18:00:00 TS 11.8000 127.600 main 215 192 __O___________ -1 11.8000 127.600 0 1005 7 291
1956361N10131 1956 121 WP MM NOT_NAMED 1956-12-27 21:00:00 TS 11.9074 127.320 main 192 175 __P___________ -1 11.9074 127.320 0 1002 5 292
1956361N10131 1956 121 WP MM NOT_NAMED 1956-12-28 00:00:00 TS 12.0000 127.100 main 175 152 __O___________ -1 12.0000 127.100 0 1000 5 294
1956361N10131 1956 121 WP MM NOT_NAMED 1956-12-28 03:00:00 TS 12.1000 126.885 main 152 130 __P___________ -1 12.1000 126.885 0 1000 4 297
1956361N10131 1956 121 WP MM NOT_NAMED 1956-12-28 06:00:00 TS 12.2000 126.700 main 130 119 __O___________ -1 12.2000 126.700 0 1000 4 303
1956361N10131 1956 121 WP MM NOT_NAMED 1956-12-28 09:00:00 TS 12.3074 126.557 main 120 100 __P___________ -1 12.3074 126.557 0 1000 4 304
1956361N10131 1956 121 WP MM NOT_NAMED 1956-12-28 12:00:00 TS 12.4000 126.400 main 100 79 __O___________ -1 12.4000 126.400 0 1000 4 288
1956361N10131 1956 121 WP MM NOT_NAMED 1956-12-28 15:00:00 TS 12.4351 126.142 main 68 54 __P___________ -1 12.4351 126.142 0 1000 5 282
1956361N10131 1956 121 WP MM NOT_NAMED 1956-12-28 18:00:00 TS 12.5000 125.900 main 54 46 __O___________ -1 12.5000 125.900 0 1000 4 301
1956361N10131 1956 121 WP MM NOT_NAMED 1956-12-28 21:00:00 TS 12.6625 125.755 main 63 54 __P___________ -1 12.6625 125.755 0 1000 4 334
1956361N10131 1956 121 WP MM NOT_NAMED 1956-12-29 00:00:00 TS 12.9000 125.700 main 70 70 __O___________ -1 12.9000 125.700 0 1000 5 355
1956361N10131 1956 121 WP MM NOT_NAMED 1956-12-29 03:00:00 TS 13.2000 125.720 main 95 95 __P___________ -1 13.2000 125.720 0 1000 6 9
1956361N10131 1956 121 WP MM NOT_NAMED 1956-12-29 06:00:00 TS 13.5000 125.800 main 129 129 __O___________ -1 13.5000 125.800 1 23 1000 6 16
1956361N10131 1956 121 WP MM NOT_NAMED 1956-12-29 09:00:00 TS 13.7300 125.878 main 154 154 __P___________ -1 13.7300 125.878 1 23 1000 4 26
1956361N10131 1956 121 WP MM NOT_NAMED 1956-12-29 12:00:00 TS 13.9000 126.000 main 172 172 __O___________ -1 13.9000 126.000 1 23 1000 4 44
1956361N10131 1956 121 WP MM NOT_NAMED 1956-12-29 15:00:00 TS 14.0375 126.185 main 194 194 __P___________ -1 14.0375 126.185 1 23 1000 4 63
1956361N10131 1956 121 WP MM NOT_NAMED 1956-12-29 18:00:00 TS 14.1000 126.400 main 217 217 __O___________ -1 14.1000 126.400 1 23 1000 5 82
1956361N10131 1956 121 WP MM NOT_NAMED 1956-12-29 21:00:00 TS 14.1025 126.645 main 234 234 __P___________ -1 14.1025 126.645 1 23 1000 4 104
1956361N10131 1956 121 WP MM NOT_NAMED 1956-12-30 00:00:00 TS 14.0000 126.800 main 241 225 __O___________ -1 14.0000 126.800 1 23 1000 3 159
1956361N10131 1956 121 WP MM NOT_NAMED 1956-12-30 03:00:00 TS 13.7799 126.775 main 225 187 __P___________ -1 13.7799 126.775 1 23 1000 5 201
1956361N10131 1956 121 WP MM NOT_NAMED 1956-12-30 06:00:00 TS 13.5000 126.600 main 187 148 __O___________ -1 13.5000 126.600 1 23 1000 7 217
1956361N10131 1956 121 WP MM NOT_NAMED 1956-12-30 09:00:00 TS 13.2275 126.345 main 140 101 __P___________ -1 13.2275 126.345 1 23 1000 8 229
1956361N10131 1956 121 WP MM NOT_NAMED 1956-12-30 12:00:00 TS 13.0000 126.000 main 101 62 __O___________ -1 13.0000 126.000 1 23 1000 8 243
1956361N10131 1956 121 WP MM NOT_NAMED 1956-12-30 15:00:00 TS 12.8700 125.615 main 62 33 __P___________ -1 12.8700 125.615 1 23 1000 8 256
1956361N10131 1956 121 WP MM NOT_NAMED 1956-12-30 18:00:00 TS 12.8000 125.200 main 33 22 __O___________ -1 12.8000 125.200 1 23 1000 8 260
1956361N10131 1956 121 WP MM NOT_NAMED 1956-12-30 21:00:00 TS 12.7200 124.777 main 24 22 __P___________ -1 12.7200 124.777 1 1001 8 263
1956361N10131 1956 121 WP MM NOT_NAMED 1956-12-31 00:00:00 TS 12.7000 124.400 main 22 0 __O___________ -1 12.7000 124.400 0 1003 6 275
1956361N10131 1956 121 WP MM NOT_NAMED 1956-12-31 03:00:00 TS 12.7699 124.135 main 0 0 __P___________ -1 12.7699 124.135 0 1003 5 292
1956361N10131 1956 121 WP MM NOT_NAMED 1956-12-31 06:00:00 TS 12.9000 123.900 main 10 0 __O___________ -1 12.9000 123.900 0 1003 6 298
1956361N10131 1956 121 WP MM NOT_NAMED 1956-12-31 09:00:00 TS 13.0350 123.615 main 0 0 __P___________ -1 13.0350 123.615 0 1003 7 297
1956361N10131 1956 121 WP MM NOT_NAMED 1956-12-31 12:00:00 TS 13.2000 123.300 main 0 0 __O___________ -1 13.2000 123.300 0 1003 7 295
1956361N10131 1956 121 WP MM NOT_NAMED 1956-12-31 15:00:00 TS 13.3325 122.965 main 24 10 __P___________ -1 13.3325 122.965 0 1004 8 300
1956361N10131 1956 121 WP MM NOT_NAMED 1956-12-31 18:00:00 TS 13.6000 122.600 main 10 0 __O___________ -1 13.6000 122.600 0 1005 11 317
1956361N10131 1956 121 WP MM NOT_NAMED 1956-12-31 21:00:00 TS 14.1226 122.208 main 0 0 __P___________ -1 14.1226 122.208 0 1006 14 327
1956361N10131 1956 121 WP MM NOT_NAMED 1957-01-01 00:00:00 TS 14.8000 121.800 main 15 __O___________ -1 14.8000 121.800 0 1007 16 330

Digital Typhoon Data and Search

About IBTrACS Database

This database is a web-friendly format of International Best Track Archive for Climate Stewardship (IBTrACS), a global best track data archive curated by NOAA dating back to 1842.

Updated: 2021-10-25